Terminal Aerodrome Forecast
Issued by NWS

Home | Current Version | Previous Version | Text Only | Print | Product List | Glossary On
Versions: 1 2 3 4 5 6 7 8 9 10 11 12 13 14 15 16 17 18 19 20 21 22 23 24 25 26 27 28 29 30 31 32 33 34
000
FTUS41 KOKX 211700 RRA
TAFGON
TAF
KGON 211752Z 2118/2218 15006KT P6SM SCT015 SCT040 SCT100
     FM212100 09009KT P6SM SCT015 SCT040 SCT070
     FM220000 VRB04KT P6SM SCT015 SCT030 BKN060
     FM220600 03008KT 6SM BR FEW008 BKN015
     FM221000 03014G20KT 5SM -SHRA BR BKN007=

USA.gov is the U.S. government's official web portal to all federal, state and local government web resources and services.